X  CloseMetar Aviation Weather Data     YBBN Brisbane International

Temperature

21°C Temperature

13°C Dewpoint

60% Humidity



Wind

16 KM/H

10 MPH

 4 M/S

 9 KTS



70°
East North
East
Current Conditions

Partly Cloudy Partly Cloudy
Pressure 1021.92 (hPa) - 30.18 (in)
Visibility 6.2 (mi) - 10 (km)
Airport
Airport-code YBBN

Location Brisbane International 14 (km)

Metar:
YBBN 230730Z 07009KT 9999 FEW030 21/13 Q1022 NOSIG

Time: 23-10-2019 17:30